Time;durP1;ratioP1;P1;durP2;ratioP2;P2;SDS_P1;SDS_P2;PMS_P1;PMS_P2;Temp;Humidity;BMP_temperature;BMP_pressure;BME280_temperature;BME280_humidity;BME280_pressure;Samples;Min_cycle;Max_cycle;Signal;HPM_P1;HPM_P2
2022/05/05 00:00:14;;;;;;;7.00;3.60;;;23.50;54.30;;;;;;215968;1293;24334;-44
2022/05/05 00:05:37;;;;;;;8.50;3.20;;;23.50;54.20;;;;;;215926;1294;24318;-47
2022/05/05 00:16:04;;;;;;;7.30;3.40;;;23.50;54.30;;;;;;215737;1296;22562;-44
2022/05/05 00:21:08;;;;;;;9.30;4.10;;;23.50;54.20;;;;;;215510;1296;24409;-42
2022/05/05 00:26:11;;;;;;;9.50;3.40;;;23.40;54.60;;;;;;215168;1294;24193;-45
2022/05/05 00:31:16;;;;;;;6.20;3.30;;;23.40;54.60;;;;;;215841;1296;22866;-44
2022/05/05 00:36:20;;;;;;;9.40;3.40;;;23.40;54.30;;;;;;215854;1293;22585;-45
2022/05/05 00:41:23;;;;;;;7.30;3.30;;;23.40;54.30;;;;;;215714;1293;24351;-45
2022/05/05 00:46:27;;;;;;;6.20;3.10;;;23.30;54.30;;;;;;215993;1293;22592;-45
2022/05/05 00:51:32;;;;;;;6.40;3.70;;;23.30;54.50;;;;;;215934;1293;25348;-44
2022/05/05 00:56:36;;;;;;;6.30;3.50;;;23.30;54.80;;;;;;215822;1293;22595;-47
2022/05/05 01:01:40;;;;;;;5.20;3.20;;;23.30;54.50;;;;;;216142;1294;24044;-46
2022/05/05 01:06:44;;;;;;;4.50;2.70;;;23.20;54.60;;;;;;215898;1293;23982;-46
2022/05/05 01:11:48;;;;;;;7.50;3.40;;;23.20;54.80;;;;;;216066;1293;25491;-46
2022/05/05 01:16:54;;;;;;;5.90;3.10;;;23.30;54.90;;;;;;215886;1293;25236;-44
2022/05/05 01:21:58;;;;;;;6.10;3.20;;;23.20;54.60;;;;;;215751;1294;22716;-45
2022/05/05 01:32:32;;;;;;;6.10;3.30;;;23.20;54.70;;;;;;216035;1293;23031;-44
2022/05/05 01:37:36;;;;;;;;;;;23.20;54.80;;;;;;215834;1293;25269;-43
2022/05/05 01:42:39;;;;;;;5.90;3.30;;;23.20;54.80;;;;;;215154;1294;22560;-45
2022/05/05 01:47:46;;;;;;;7.30;3.20;;;23.10;54.80;;;;;;215626;1293;25312;-44
2022/05/05 01:52:53;;;;;;;9.10;3.40;;;23.10;54.70;;;;;;215940;1294;22512;-45
2022/05/05 01:57:58;;;;;;;4.30;3.00;;;23.10;54.80;;;;;;215651;1293;24294;-44
2022/05/05 02:03:01;;;;;;;6.50;3.70;;;23.10;54.80;;;;;;214964;1296;22752;-45
2022/05/05 02:08:06;;;;;;;7.50;3.20;;;23.00;55.10;;;;;;215680;1293;22637;-43
2022/05/05 02:13:10;;;;;;;5.00;3.40;;;23.00;55.10;;;;;;216032;1293;22565;-46
2022/05/05 02:18:14;;;;;;;5.40;2.90;;;23.00;54.80;;;;;;216084;1293;22598;-46
2022/05/05 02:23:18;;;;;;;7.50;3.20;;;23.00;54.90;;;;;;216016;1293;26496;-48
2022/05/05 02:28:21;;;;;;;5.80;3.50;;;23.00;55.10;;;;;;215783;1294;25274;-45
2022/05/05 02:33:25;;;;;;;7.70;3.60;;;23.00;55.00;;;;;;215887;1293;25158;-42
2022/05/05 02:38:44;;;;;;;5.10;3.10;;;23.00;55.10;;;;;;215484;1293;22562;-45
2022/05/05 02:43:47;;;;;;;4.80;3.00;;;23.00;55.10;;;;;;215613;1293;22745;-45
2022/05/05 02:48:51;;;;;;;4.80;2.60;;;22.90;55.10;;;;;;215889;1293;22767;-43
2022/05/05 02:59:20;;;;;;;4.60;3.20;;;22.90;55.20;;;;;;216007;1293;24322;-43
2022/05/05 03:04:29;;;;;;;4.50;2.90;;;22.90;55.20;;;;;;215334;1293;22579;-44
2022/05/05 03:09:41;;;;;;;5.60;3.20;;;22.90;55.20;;;;;;215797;1293;24529;-44
2022/05/05 03:14:47;;;;;;;5.30;3.00;;;22.90;55.20;;;;;;215934;1294;22592;-45
2022/05/05 03:19:51;;;;;;;5.50;3.30;;;22.90;55.20;;;;;;215825;1293;25267;-62
2022/05/05 03:24:55;;;;;;;6.50;3.40;;;22.90;55.30;;;;;;215959;1294;22567;-45
2022/05/05 03:30:00;;;;;;;5.70;3.40;;;22.80;55.30;;;;;;215788;1293;22711;-46
2022/05/05 03:35:04;;;;;;;4.90;3.10;;;22.80;55.20;;;;;;215946;1293;24320;-42
2022/05/05 03:40:12;;;;;;;7.10;3.70;;;22.80;55.20;;;;;;215496;1293;22553;-43
2022/05/05 03:45:16;;;;;;;6.20;3.30;;;22.80;55.30;;;;;;215995;1293;22589;-46
2022/05/05 03:50:20;;;;;;;5.00;2.90;;;22.80;55.30;;;;;;215937;1293;22815;-44
2022/05/05 03:55:29;;;;;;;4.90;2.80;;;22.70;55.50;;;;;;215716;1293;25269;-43
2022/05/05 04:00:32;;;;;;;4.60;3.20;;;22.80;55.30;;;;;;216067;1293;22561;-43
2022/05/05 04:05:36;;;;;;;4.70;3.10;;;22.70;55.20;;;;;;216127;1293;24430;-45
2022/05/05 04:10:40;;;;;;;5.40;3.20;;;22.80;55.30;;;;;;216013;1293;24262;-45
2022/05/05 04:15:45;;;;;;;5.70;3.10;;;22.80;55.20;;;;;;215888;1292;22663;-44
2022/05/05 04:20:49;;;;;;;7.10;3.50;;;22.70;55.20;;;;;;215484;1293;437546;-46
2022/05/05 04:25:53;;;;;;;6.30;3.50;;;22.70;55.50;;;;;;215772;1293;22754;-45
2022/05/05 04:30:57;;;;;;;4.50;2.90;;;22.70;55.20;;;;;;215687;1296;22888;-45
2022/05/05 04:36:01;;;;;;;5.30;3.40;;;22.70;55.10;;;;;;215547;1296;24338;-44
2022/05/05 04:41:05;;;;;;;7.10;3.90;;;22.70;55.50;;;;;;215611;1293;25407;-46
2022/05/05 04:46:11;;;;;;;9.70;4.60;;;22.70;55.50;;;;;;215702;1296;24380;-44
2022/05/05 04:51:16;;;;;;;5.90;3.50;;;22.60;55.10;;;;;;215545;1293;22615;-45
2022/05/05 04:56:19;;;;;;;6.60;3.20;;;22.70;55.20;;;;;;215365;1294;24439;-44
2022/05/05 05:01:24;;;;;;;4.80;2.70;;;22.70;55.10;;;;;;215628;1293;24421;-46
2022/05/05 05:06:28;;;;;;;4.70;3.20;;;22.70;55.20;;;;;;215908;1293;23217;-44
2022/05/05 05:11:32;;;;;;;5.60;3.70;;;22.70;55.20;;;;;;215955;1293;22570;-44
2022/05/05 05:16:36;;;;;;;5.80;3.60;;;22.60;55.10;;;;;;215364;1293;23193;-46
2022/05/05 05:21:44;;;;;;;4.60;3.20;;;22.60;55.10;;;;;;215680;1293;22578;-43
2022/05/05 05:26:48;;;;;;;5.70;3.40;;;22.60;55.20;;;;;;215183;1296;23074;-44
2022/05/05 05:31:54;;;;;;;5.80;3.70;;;22.60;55.00;;;;;;215267;1296;24272;-44
2022/05/05 05:37:04;;;;;;;6.20;3.20;;;22.60;55.30;;;;;;215090;1296;24372;-45
2022/05/05 05:42:08;;;;;;;5.80;4.00;;;22.70;55.20;;;;;;215722;1293;23983;-44
2022/05/05 05:47:12;;;;;;;9.60;3.90;;;22.70;55.50;;;;;;215972;1293;24911;-45
2022/05/05 05:52:16;;;;;;;9.00;4.10;;;22.70;55.40;;;;;;215846;1293;24312;-45
2022/05/05 05:57:20;;;;;;;9.70;3.40;;;22.70;55.80;;;;;;215934;1293;25664;-43
2022/05/05 06:07:46;;;;;;;5.80;3.40;;;22.70;55.30;;;;;;215382;1294;22562;-44
2022/05/05 06:12:49;;;;;;;7.00;3.60;;;22.80;56.40;;;;;;215530;1293;22596;-41
2022/05/05 06:17:56;;;;;;;10.30;4.20;;;22.80;56.10;;;;;;215566;1293;25267;-45
2022/05/05 06:23:01;;;;;;;14.80;4.70;;;22.90;56.60;;;;;;215917;1293;25497;-43
2022/05/05 06:28:05;;;;;;;8.80;3.70;;;22.90;56.50;;;;;;215410;1293;22918;-43
2022/05/05 06:33:09;;;;;;;6.60;4.00;;;22.90;56.10;;;;;;215520;1293;22604;-46
2022/05/05 06:38:12;;;;;;;11.20;4.30;;;22.90;56.10;;;;;;215444;1293;22599;-45
2022/05/05 06:43:16;;;;;;;8.70;4.60;;;23.00;56.20;;;;;;215674;1293;22602;-44
2022/05/05 06:48:19;;;;;;;13.50;4.80;;;23.00;56.00;;;;;;215548;1296;24262;-43
2022/05/05 06:53:23;;;;;;;13.60;5.20;;;23.00;56.10;;;;;;215445;1294;22573;-45
2022/05/05 06:58:27;;;;;;;14.20;5.10;;;23.10;56.00;;;;;;215430;1293;24371;-44
2022/05/05 07:03:30;;;;;;;22.70;5.20;;;23.10;56.00;;;;;;215595;1293;25361;-43
2022/05/05 07:13:58;;;;;;;11.40;4.80;;;23.10;56.50;;;;;;215342;1296;22793;-46
2022/05/05 07:19:07;;;;;;;9.40;4.70;;;23.00;56.10;;;;;;215616;1296;25740;-43
2022/05/05 07:24:16;;;;;;;10.00;4.60;;;23.10;56.10;;;;;;215261;1295;25250;-43
2022/05/05 07:29:19;;;;;;;10.00;4.90;;;23.10;55.80;;;;;;215507;1296;25404;-45
2022/05/05 07:34:23;;;;;;;11.40;4.90;;;23.00;56.00;;;;;;215182;1295;25375;-43
2022/05/05 07:39:27;;;;;;;8.70;4.60;;;23.00;55.60;;;;;;215556;1296;24258;-44
2022/05/05 07:44:32;;;;;;;10.70;4.70;;;23.10;55.30;;;;;;215276;1296;22602;-43
2022/05/05 07:49:36;;;;;;;6.50;4.30;;;23.10;55.10;;;;;;215145;1296;25283;-43
2022/05/05 07:54:43;;;;;;;8.20;4.50;;;23.10;55.00;;;;;;215138;1296;25470;-43
2022/05/05 07:59:49;;;;;;;9.60;4.70;;;23.20;55.20;;;;;;215305;1296;24354;-43
2022/05/05 08:04:56;;;;;;;6.70;4.60;;;23.20;54.80;;;;;;215714;1296;22717;-45
2022/05/05 08:10:00;;;;;;;13.50;5.00;;;23.20;54.80;;;;;;215335;1296;23130;-47
2022/05/05 08:15:06;;;;;;;11.40;5.00;;;23.20;54.80;;;;;;215513;1296;25384;-44
2022/05/05 08:20:10;;;;;;;9.60;5.30;;;23.20;55.40;;;;;;215375;1296;25352;-43
2022/05/05 08:30:38;;;;;;;9.00;6.20;;;23.30;55.10;;;;;;215493;1293;22599;-43
2022/05/05 08:35:42;;;;;;;9.20;5.50;;;23.30;54.70;;;;;;215394;1296;22606;-43
2022/05/05 08:40:47;;;;;;;10.40;6.10;;;23.30;54.20;;;;;;215108;1296;22791;-45
2022/05/05 08:45:54;;;;;;;9.40;6.20;;;23.30;54.10;;;;;;215406;1293;25742;-45
2022/05/05 08:51:00;;;;;;;9.80;6.30;;;23.30;54.20;;;;;;215572;1293;22577;-50
2022/05/05 08:56:05;;;;;;;10.50;6.50;;;23.40;53.20;;;;;;215339;1296;24312;-46
2022/05/05 09:01:08;;;;;;;9.50;6.20;;;23.40;53.30;;;;;;215320;1293;22588;-48
2022/05/05 09:06:13;;;;;;;8.60;5.90;;;23.40;53.20;;;;;;215381;1296;23212;-45
2022/05/05 09:11:18;;;;;;;10.60;6.90;;;23.50;53.20;;;;;;215089;1293;24230;-48
2022/05/05 09:16:26;;;;;;;8.70;6.10;;;23.50;53.20;;;;;;215580;1293;24450;-47
2022/05/05 09:21:34;;;;;;;10.80;7.00;;;23.50;53.10;;;;;;215355;1294;22754;-52
2022/05/05 09:26:38;;;;;;;8.80;6.60;;;23.50;53.00;;;;;;215585;1294;22582;-45
2022/05/05 09:31:41;;;;;;;9.20;6.80;;;23.50;52.80;;;;;;215383;1293;22624;-43
2022/05/05 09:36:48;;;;;;;10.70;6.70;;;23.60;52.80;;;;;;215462;1293;24773;-41
2022/05/05 09:41:54;;;;;;;9.00;6.60;;;23.60;52.70;;;;;;215444;1293;22795;-43
2022/05/05 09:46:58;;;;;;;9.50;6.60;;;23.60;52.60;;;;;;215838;1293;26370;-43
2022/05/05 09:57:41;;;;;;;10.00;6.70;;;23.70;52.90;;;;;;215490;1293;25312;-47
2022/05/05 10:08:17;;;;;;;9.90;6.50;;;23.70;52.40;;;;;;215296;1294;22587;-49
2022/05/05 10:13:30;;;;;;;7.20;5.90;;;23.80;52.20;;;;;;215405;1296;23986;-44
2022/05/05 10:18:38;;;;;;;7.10;6.10;;;23.90;52.80;;;;;;215840;1293;22588;-43
2022/05/05 10:24:10;;;;;;;9.00;6.80;;;23.90;52.30;;;;;;215212;1293;22592;-43
2022/05/05 10:29:43;;;;;;;9.90;7.00;;;23.80;51.80;;;;;;215780;1293;24508;-45
2022/05/05 10:35:07;;;;;;;11.50;6.80;;;23.90;51.30;;;;;;215177;1293;26243;-46
2022/05/05 10:40:12;;;;;;;9.00;6.70;;;23.90;50.90;;;;;;215843;1293;25376;-47
2022/05/05 10:45:30;;;;;;;10.10;7.00;;;23.90;50.20;;;;;;215751;1293;23533;-48
2022/05/05 10:50:39;;;;;;;9.50;6.80;;;23.90;50.90;;;;;;215716;1293;25358;-47
2022/05/05 10:55:48;;;;;;;11.10;6.70;;;23.90;48.50;;;;;;216115;1293;22566;-47
2022/05/05 11:01:09;;;;;;;9.20;6.60;;;24.00;49.90;;;;;;215677;1293;24335;-47
2022/05/05 11:06:17;;;;;;;10.30;6.40;;;24.00;49.90;;;;;;216555;1293;24239;-48
2022/05/05 11:22:26;;;;;;;9.40;6.80;;;24.10;49.10;;;;;;215252;1296;24485;-46
2022/05/05 11:27:30;;;;;;;10.10;7.10;;;24.20;49.30;;;;;;215364;1296;22730;-47
2022/05/05 11:32:34;;;;;;;12.10;7.30;;;24.20;49.30;;;;;;215610;1293;22584;-46
2022/05/05 11:37:43;;;;;;;11.10;6.50;;;24.20;49.30;;;;;;215715;1293;22579;-44
2022/05/05 11:48:17;;;;;;;9.10;6.70;;;24.30;49.10;;;;;;215546;1293;22580;-46
2022/05/05 11:53:47;;;;;;;7.60;6.50;;;24.30;49.20;;;;;;215729;1293;24909;-50
2022/05/05 12:04:14;;;;;;;9.00;6.20;;;24.40;49.70;;;;;;215594;1294;24286;-46
2022/05/05 12:09:20;;;;;;;8.30;5.90;;;24.40;49.50;;;;;;215654;1293;25455;-49
2022/05/05 12:14:24;;;;;;;7.70;6.40;;;24.40;48.30;;;;;;215823;1293;25306;-49
2022/05/05 12:19:28;;;;;;;7.20;6.00;;;24.40;49.40;;;;;;215335;1293;22572;-44
2022/05/05 12:24:52;;;;;;;7.70;6.40;;;24.40;48.80;;;;;;215373;1293;25385;-45
2022/05/05 12:29:56;;;;;;;7.40;6.10;;;24.40;49.30;;;;;;215911;1293;22734;-50
2022/05/05 12:35:11;;;;;;;8.10;6.30;;;24.40;48.90;;;;;;215549;1293;24235;-42
2022/05/05 12:40:16;;;;;;;7.70;6.20;;;24.40;48.90;;;;;;215120;1296;27825;-47
2022/05/05 12:45:24;;;;;;;11.10;6.20;;;24.40;49.70;;;;;;215642;1293;25540;-47
2022/05/05 12:50:43;;;;;;;8.90;6.40;;;24.40;49.50;;;;;;215902;1293;25346;-45
2022/05/05 13:01:26;;;;;;;9.80;6.40;;;24.40;49.70;;;;;;215341;1293;24324;-47
2022/05/05 13:06:30;;;;;;;6.90;5.20;;;24.30;50.10;;;;;;215396;1293;22561;-44
2022/05/05 13:11:44;;;;;;;7.20;6.00;;;24.20;50.90;;;;;;215399;1293;23680;-45
2022/05/05 13:16:52;;;;;;;7.10;5.80;;;24.10;50.40;;;;;;215609;1293;22644;-47
2022/05/05 13:22:02;;;;;;;8.10;6.00;;;24.10;50.80;;;;;;215768;1294;24245;-49
2022/05/05 13:27:06;;;;;;;7.80;6.00;;;24.10;51.30;;;;;;215511;1293;25381;-46
2022/05/05 13:32:15;;;;;;;8.60;6.10;;;23.90;52.10;;;;;;215533;1294;25170;-45
2022/05/05 13:37:24;;;;;;;9.10;6.70;;;23.70;54.30;;;;;;215949;1294;22780;-44
2022/05/05 13:42:32;;;;;;;;;;;23.60;54.50;;;;;;215282;1293;24334;-50
2022/05/05 13:47:40;;;;;;;9.70;7.10;;;23.50;53.00;;;;;;215528;1293;22773;-47
2022/05/05 13:52:47;;;;;;;9.00;6.80;;;23.40;55.80;;;;;;215312;1294;24335;-43
2022/05/05 13:57:51;;;;;;;7.10;6.00;;;23.50;56.10;;;;;;215161;1293;22649;-46
2022/05/05 14:03:02;;;;;;;8.50;6.50;;;23.50;58.00;;;;;;215121;1293;22890;-44
2022/05/05 14:13:32;;;;;;;8.10;6.10;;;23.50;57.70;;;;;;215361;1294;22570;-43
2022/05/05 14:18:53;;;;;;;13.00;5.90;;;23.50;57.20;;;;;;215396;1293;23076;-44
2022/05/05 14:24:26;;;;;;;8.30;5.60;;;23.50;56.70;;;;;;215261;1293;25294;-43
2022/05/05 14:29:48;;;;;;;10.50;5.40;;;23.60;55.60;;;;;;215493;1293;26286;-42
2022/05/05 14:34:56;;;;;;;7.80;5.70;;;23.60;55.50;;;;;;215789;1293;25183;-41
2022/05/05 14:40:07;;;;;;;8.00;5.60;;;23.30;59.30;;;;;;215112;1293;22882;-46
2022/05/05 14:45:18;;;;;;;21.00;6.50;;;23.10;57.00;;;;;;215435;1293;24469;-44
2022/05/05 14:50:23;;;;;;;14.10;5.30;;;22.90;57.70;;;;;;215523;1294;22576;-42
2022/05/05 14:55:32;;;;;;;15.20;6.70;;;23.00;59.50;;;;;;215474;1293;22676;-44
2022/05/05 15:00:43;;;;;;;17.80;6.90;;;23.10;59.30;;;;;;215160;1293;22615;-48
2022/05/05 15:05:50;;;;;;;14.90;7.30;;;23.10;61.40;;;;;;215742;1294;22562;-55
2022/05/05 15:10:56;;;;;;;17.50;6.50;;;23.00;61.20;;;;;;215555;1294;24250;-49
2022/05/05 15:16:03;;;;;;;12.40;6.70;;;23.10;61.20;;;;;;215325;1294;22580;-51
2022/05/05 15:21:13;;;;;;;18.60;6.70;;;23.30;62.30;;;;;;216110;1294;22734;-51
2022/05/05 15:26:22;;;;;;;12.10;6.60;;;23.50;62.90;;;;;;215811;1294;25025;-51
2022/05/05 15:31:38;;;;;;;11.80;6.10;;;23.60;61.80;;;;;;215405;1293;22752;-48
2022/05/05 15:36:58;;;;;;;16.00;6.40;;;23.60;61.60;;;;;;222710;1295;22541;-45
2022/05/05 15:42:22;;;;;;;13.00;5.60;;;23.60;61.20;;;;;;222576;1294;22267;-48
2022/05/05 15:47:43;;;;;;;10.50;5.50;;;23.70;61.10;;;;;;222875;1293;22528;-56
2022/05/05 15:52:52;;;;;;;;;;;23.60;60.70;;;;;;222891;1293;22380;-56
2022/05/05 15:57:57;;;;;;;8.60;5.50;;;23.60;60.30;;;;;;222643;1294;22202;-47
2022/05/05 16:03:06;;;;;;;11.00;5.90;;;23.60;60.00;;;;;;222872;1293;23034;-58
2022/05/05 16:08:21;;;;;;;8.60;5.10;;;23.60;60.10;;;;;;222865;1293;22362;-50
2022/05/05 16:13:25;;;;;;;11.80;5.30;;;23.60;60.30;;;;;;222693;1293;22258;-52
2022/05/05 16:18:30;;;;;;;8.70;5.20;;;23.60;60.10;;;;;;222828;1293;22539;-51
2022/05/05 16:23:49;;;;;;;9.20;5.40;;;23.50;60.40;;;;;;222348;1293;587238;-49
2022/05/05 16:34:55;;;;;;;12.80;7.20;;;23.50;60.70;;;;;;220375;1293;22587;-52
2022/05/05 16:40:32;;;;;;;17.10;6.10;;;23.50;61.30;;;;;;214663;1296;22575;-48
2022/05/05 16:45:44;;;;;;;17.60;6.00;;;23.60;62.60;;;;;;215700;1294;24354;-47
2022/05/05 16:50:54;;;;;;;17.90;6.00;;;23.60;61.90;;;;;;215504;1294;24255;-49
2022/05/05 16:56:02;;;;;;;14.10;6.20;;;23.60;60.80;;;;;;215691;1294;22755;-52
2022/05/05 17:01:13;;;;;;;13.60;7.20;;;23.60;60.80;;;;;;215901;1293;22589;-48
2022/05/05 17:06:18;;;;;;;15.20;6.00;;;23.50;60.30;;;;;;215253;1294;22637;-48
2022/05/05 17:11:22;;;;;;;14.10;8.10;;;23.50;59.80;;;;;;215595;1294;23051;-53
2022/05/05 17:16:28;;;;;;;17.20;8.00;;;23.60;60.50;;;;;;215764;1294;23111;-48
2022/05/05 17:21:35;;;;;;;11.50;7.20;;;23.50;62.40;;;;;;215070;1293;22804;-50
2022/05/05 17:26:39;;;;;;;12.40;6.50;;;23.60;62.10;;;;;;215434;1296;24335;-48
2022/05/05 17:31:45;;;;;;;15.40;7.40;;;23.60;60.90;;;;;;215131;1294;22600;-47
2022/05/05 17:36:49;;;;;;;11.90;6.50;;;23.60;60.20;;;;;;215291;1294;25875;-49
2022/05/05 17:41:53;;;;;;;11.10;7.60;;;23.60;60.40;;;;;;215150;1296;22567;-51
2022/05/05 17:52:21;;;;;;;13.50;6.70;;;23.60;60.00;;;;;;215836;1294;23984;-46
2022/05/05 17:57:26;;;;;;;16.00;6.70;;;23.60;60.90;;;;;;215751;1294;22588;-48
2022/05/05 18:02:30;;;;;;;17.60;6.60;;;23.70;61.20;;;;;;215931;1294;22602;-47
2022/05/05 18:07:35;;;;;;;125.30;25.80;;;23.70;60.70;;;;;;214917;1296;22600;-49
2022/05/05 18:12:46;;;;;;;24.70;9.30;;;23.70;61.20;;;;;;215316;1296;24374;-51
2022/05/05 18:17:55;;;;;;;33.50;11.50;;;23.80;61.20;;;;;;215430;1296;24315;-52
2022/05/05 18:23:07;;;;;;;46.50;12.80;;;23.80;61.80;;;;;;215292;1294;25399;-50
2022/05/05 18:28:12;;;;;;;36.50;10.30;;;23.80;61.80;;;;;;215604;1296;24169;-51
2022/05/05 18:33:17;;;;;;;31.80;9.90;;;23.80;61.60;;;;;;215541;1294;25333;-49
2022/05/05 18:38:27;;;;;;;34.70;10.00;;;23.80;61.40;;;;;;215391;1294;25412;-47
2022/05/05 18:43:44;;;;;;;41.50;11.70;;;23.80;61.70;;;;;;215503;1296;22649;-55
2022/05/05 18:48:57;;;;;;;29.20;9.30;;;23.70;62.50;;;;;;215275;1296;22635;-48
2022/05/05 18:54:09;;;;;;;28.00;9.50;;;23.80;62.20;;;;;;215507;1294;22562;-50
2022/05/05 19:04:50;;;;;;;25.70;9.40;;;23.80;62.30;;;;;;215073;1293;24338;-42
2022/05/05 19:10:05;;;;;;;30.90;9.00;;;23.80;62.30;;;;;;215184;1296;23846;-43
2022/05/05 19:15:39;;;;;;;21.00;8.30;;;23.80;61.90;;;;;;214971;1296;25284;-47
2022/05/05 19:21:26;;;;;;;29.70;9.30;;;23.80;61.70;;;;;;215384;1296;24514;-43
2022/05/05 19:26:50;;;;;;;21.10;8.40;;;23.90;61.70;;;;;;214665;1300;25598;-43
2022/05/05 19:32:03;;;;;;;17.40;7.90;;;23.90;61.20;;;;;;215560;1293;22904;-44
2022/05/05 19:37:31;;;;;;;;;;;;;;;;;;;;;
2022/05/05 19:42:46;;;;;;;22.50;7.50;;;23.80;62.00;;;;;;215301;1296;24459;-43
2022/05/05 19:48:11;;;;;;;20.80;8.00;;;23.80;61.50;;;;;;215425;1296;22585;-43
2022/05/05 19:53:21;;;;;;;24.30;8.40;;;23.80;62.10;;;;;;215494;1293;24345;-42
2022/05/05 20:04:17;;;;;;;20.00;7.70;;;23.80;65.10;;;;;;215440;1293;24332;-45
2022/05/05 20:09:55;;;;;;;23.30;8.10;;;23.80;64.90;;;;;;215515;1294;25446;-44
2022/05/05 20:15:06;;;;;;;22.60;8.20;;;23.80;65.00;;;;;;215811;1293;23358;-43
2022/05/05 20:20:17;;;;;;;19.80;8.60;;;23.70;64.10;;;;;;215468;1293;24351;-44
2022/05/05 20:25:21;;;;;;;24.50;7.90;;;23.80;65.20;;;;;;215075;1293;22579;-43
2022/05/05 20:30:24;;;;;;;17.50;7.30;;;23.80;65.60;;;;;;215721;1293;24367;-44
2022/05/05 20:35:28;;;;;;;20.00;7.90;;;23.80;64.90;;;;;;215288;1293;22665;-43
2022/05/05 20:40:32;;;;;;;22.10;7.90;;;23.80;64.50;;;;;;215687;1293;22564;-44
2022/05/05 20:45:36;;;;;;;18.80;7.90;;;23.80;64.40;;;;;;215055;1293;24363;-44
2022/05/05 20:50:46;;;;;;;21.50;7.40;;;23.70;64.40;;;;;;215738;1293;22579;-43
2022/05/05 20:55:53;;;;;;;16.00;7.20;;;23.70;64.50;;;;;;215169;1293;24310;-46
2022/05/05 21:01:13;;;;;;;15.10;7.00;;;23.70;64.40;;;;;;214625;1294;24456;-42
2022/05/05 21:06:22;;;;;;;13.70;7.20;;;23.70;64.80;;;;;;215058;1293;24421;-43
2022/05/05 21:11:26;;;;;;;16.00;6.40;;;23.80;64.30;;;;;;215179;1293;25235;-45
2022/05/05 21:16:31;;;;;;;21.60;7.30;;;23.80;64.70;;;;;;216009;1293;25347;-42
2022/05/05 21:27:13;;;;;;;13.60;7.00;;;23.80;64.60;;;;;;215908;1293;24251;-43
2022/05/05 21:32:33;;;;;;;14.80;6.70;;;23.80;64.50;;;;;;215345;1293;22585;-42
2022/05/05 21:37:40;;;;;;;13.70;6.40;;;23.80;63.90;;;;;;215443;1293;22580;-43
2022/05/05 21:42:46;;;;;;;11.80;6.60;;;23.80;64.30;;;;;;215558;1293;24257;-43
2022/05/05 21:47:54;;;;;;;13.70;6.50;;;23.80;64.10;;;;;;215588;1293;22605;-43
2022/05/05 21:53:06;;;;;;;11.10;6.20;;;23.70;63.90;;;;;;215517;1293;25614;-43
2022/05/05 21:58:25;;;;;;;16.40;6.90;;;23.80;63.80;;;;;;215683;1294;22586;-42
2022/05/05 22:03:38;;;;;;;14.70;6.60;;;23.80;63.80;;;;;;215280;1293;24466;-43
2022/05/05 22:08:51;;;;;;;14.30;6.80;;;23.80;63.60;;;;;;215762;1293;24353;-43
2022/05/05 22:14:00;;;;;;;12.40;6.40;;;23.80;63.30;;;;;;215612;1293;24259;-43
2022/05/05 22:19:09;;;;;;;11.70;5.80;;;23.80;63.10;;;;;;215351;1292;22612;-43
2022/05/05 22:24:12;;;;;;;12.90;5.90;;;23.80;63.30;;;;;;216151;1293;22633;-43
2022/05/05 22:29:16;;;;;;;13.00;5.60;;;23.70;63.20;;;;;;215424;1293;24298;-45
2022/05/05 22:34:23;;;;;;;11.70;5.90;;;23.80;63.60;;;;;;214874;1293;23814;-45
2022/05/05 22:39:31;;;;;;;14.30;6.40;;;23.80;63.20;;;;;;215202;1293;25251;-43
2022/05/05 22:44:37;;;;;;;11.60;5.80;;;23.70;63.10;;;;;;215310;1294;24440;-42
2022/05/05 22:55:15;;;;;;;10.60;5.40;;;23.70;63.10;;;;;;215148;1293;25318;-43
2022/05/05 23:00:22;;;;;;;11.10;5.70;;;23.70;62.90;;;;;;216088;1293;22640;-42
2022/05/05 23:05:27;;;;;;;8.70;5.10;;;23.70;62.80;;;;;;215597;1296;25411;-44
2022/05/05 23:10:32;;;;;;;10.10;5.30;;;23.70;62.70;;;;;;215892;1293;23948;-43
2022/05/05 23:15:36;;;;;;;11.00;5.90;;;23.70;63.20;;;;;;215672;1293;22591;-44
2022/05/05 23:20:42;;;;;;;13.70;6.10;;;23.70;63.40;;;;;;215481;1296;22595;-43
2022/05/05 23:25:45;;;;;;;9.70;5.40;;;23.70;62.70;;;;;;215828;1293;23992;-44
2022/05/05 23:30:49;;;;;;;8.60;5.70;;;23.70;63.10;;;;;;215335;1293;25385;-42
2022/05/05 23:41:16;;;;;;;8.20;6.10;;;23.70;63.60;;;;;;215274;1294;24011;-42
2022/05/05 23:46:19;;;;;;;9.50;5.90;;;23.70;63.70;;;;;;215591;1293;25483;-44
2022/05/05 23:51:42;;;;;;;9.60;6.10;;;23.70;63.80;;;;;;215691;1293;24331;-44
2022/05/05 23:56:50;;;;;;;10.10;6.40;;;23.70;63.60;;;;;;215669;1293;24412;-47
